Blue Hill Meteorological Observatory

42° 12' 44"N, 71° 06' 53"W, Elevation 635 ft.
Eastern Time

Hourly observations for the last 72 hours

Date Time Temperature (°F) Humi-
dity

(%)
Wind
(mph)
Pressure Rain (in) Sun
(W/m2)
ET
(in)
Air Dew 6 Hour 1 Hr 3 Hr 6 Hr Day
Alt
(in)
Sea
Level

(mb)
Max Min
23 16:00 53.9 53.6 99 WSW 15 G 25 29.48 998.2 0.06 0.59 1.27 35 0.002
23 15:00 54.1 53.8 99 SW 25 G 44 29.50 999.0 0.23 1.21 7 0.002
23 14:00 54.1 53.8 99 ESE 26 G 41 29.58 1001.6 0.30 0.98 11 0.002
23 13:00 48.7 48.4 49.1 32.7 99 E 22 G 29 29.64 1003.8 0.17 0.56 0.67 0.68 40 0.001
23 12:00 44.3 43.8 98 N 10 G 16 29.72 1006.5 0.36 0.51 11 0.001
23 11:00 41.6 41.1 98 ESE 14 G 20 29.75 1007.6 0.03 0.15 14 0.000
23 10:00 40.4 39.9 98 ESE 13 G 18 29.82 1009.8 0.11 0.11 0.12 18 0.000
23 09:00 35.7 35.2 98 S 14 G 17 29.86 1011.4 0.01 21 0.000
23 08:00 33.0 32.2 97 E 8 G 12 29.91 1013.0 0.01 12 0.000
23 07:00 33.0 32.2 37.7 32.5 97 N 10 G 13 29.96 1014.5 0.01 0.01 0.01 0.01 0 0.000
23 06:00 33.4 32.6 97 N 12 G 17 29.96 1014.5 0.00 0 0.000
23 05:00 33.7 32.9 97 NNE 11 G 18 29.99 1015.6 0.00 0 0.000
23 04:00 35.0 34.2 97 W 10 G 13 30.02 1016.8 0.00 0 0.000
23 03:00 37.0 36.2 97 NW 7 G 10 30.07 1018.2 0.00 0 0.000
23 02:00 37.3 36.8 98 NW 4 G 7 30.10 1019.3 0.00 0 0.000
23 01:00 36.3 35.5 37.1 35.6 97 ENE 5 G 7 30.12 1019.9 0.01 0.02 0.00 0 0.000
23 00:00 37.1 36.3 97 ENE 6 G 10 30.13 1020.4 0.12 0 0.012
22 23:00 36.8 36.0 97 E 8 G 10 30.16 1021.4 0.01 0.12 0 0.012
22 22:00 36.4 35.6 97 E 8 G 11 30.18 1022.1 0.01 0.11 0 0.012
22 21:00 36.2 35.4 97 E 8 G 13 30.21 1023.1 0.01 0.11 0 0.012
22 20:00 35.6 34.8 97 E 10 G 13 30.23 1023.7 0.10 0 0.012
22 19:00 35.7 34.9 35.8 34.6 97 E 9 G 14 30.25 1024.2 0.10 0 0.012
22 18:00 35.6 34.8 97 E 9 G 14 30.25 1024.6 0.10 0 0.012
22 17:00 35.2 34.2 96 E 9 G 15 30.24 1024.0 0.10 0 0.012
22 16:00 35.1 34.1 96 E 9 G 14 30.24 1024.1 0.10 12 0.012
22 15:00 35.1 34.1 96 ESE 9 G 16 30.23 1023.6 0.10 44 0.011
22 14:00 34.8 33.8 96 W 6 G 8 30.25 1024.6 0.10 16 0.011
22 13:00 35.1 33.8 36.7 34.4 95 ENE 6 G 9 30.24 1024.2 0.02 0.08 0.10 30 0.010
22 12:00 36.7 35.4 95 W 3 G 8 30.25 1024.4 0.01 0.10 39 0.009
22 11:00 35.9 34.6 95 NNW 4 G 6 30.28 1025.3 0.01 0.09 42 0.008
22 10:00 35.2 33.4 93 NNW 1 G 4 30.28 1025.5 0.02 0.06 0.08 40 0.007
22 09:00 35.1 33.0 92 NNW 4 G 6 30.25 1024.5 0.04 0.06 18 0.007
22 08:00 35.4 32.5 89 NNW 4 G 6 30.23 1023.7 0.02 7 0.007
22 07:00 34.6 31.1 35.7 34.0 87 NNW 6 G 10 30.20 1022.9 0.02 0.02 0.02 0 0.006
22 06:00 35.3 31.0 84 N 5 G 9 30.19 1022.4 0.02 0 0.005
22 05:00 34.0 30.8 88 N 7 G 8 30.20 1022.6 0.02 0.02 0 0.004
22 04:00 35.1 29.9 81 N 8 G 11 30.19 1022.3 0.00 0 0.003
22 03:00 35.4 30.2 81 N 6 G 9 30.18 1021.9 0.00 0 0.002
22 02:00 34.6 29.7 82 N 6 G 10 30.17 1021.8 0.00 0 0.001
22 01:00 34.9 29.7 40.6 34.8 81 N 6 G 9 30.18 1021.9 0.00 0 0.000
22 00:00 35.2 29.7 80 N 7 G 10 30.19 1022.3 0.00 0 0.060
21 23:00 35.4 29.5 79 N 7 G 10 30.18 1022.0 0.00 0 0.059
21 22:00 36.4 29.9 77 N 7 G 9 30.18 1021.9 0.00 0 0.058
21 21:00 36.9 30.0 76 N 6 G 7 30.17 1021.8 0.00 0 0.057
21 20:00 38.2 30.0 72 N 7 G 11 30.16 1021.4 0.00 0 0.056
21 19:00 40.5 30.8 46.8 40.5 68 N 2 G 3 30.16 1021.3 0.00 0 0.055
21 18:00 40.8 30.7 67 N 3 G 4 30.14 1020.6 0.00 0 0.054
21 17:00 41.8 30.9 65 N 4 G 5 30.12 1020.1 0.00 0 0.053
21 16:00 44.7 32.1 61 N 5 G 7 30.10 1019.2 0.00 42 0.050
21 15:00 46.7 31.8 56 N 2 G 8 30.08 1018.6 0.00 195 0.045
21 14:00 46.3 32.8 59 N 5 G 11 30.08 1018.5 0.00 311 0.038
21 13:00 45.7 32.6 46.2 33.5 60 N 5 G 8 30.08 1018.6 0.00 381 0.030
21 12:00 45.0 32.8 62 N 3 G 8 30.11 1019.6 0.00 452 0.023
21 11:00 43.0 32.4 66 N 2 G 7 30.14 1020.6 0.00 387 0.017
21 10:00 39.2 31.3 73 N 3 G 9 30.14 1020.7 0.00 332 0.012
21 09:00 36.3 29.5 76 NNE 8 G 10 30.11 1019.7 0.00 190 0.009
21 08:00 35.5 29.6 79 NNE 7 G 13 30.08 1018.7 0.00 84 0.008
21 07:00 33.8 28.6 37.0 33.5 81 NNE 11 G 13 30.06 1018.1 0.00 0 0.007
21 06:00 34.1 28.6 80 NNE 8 G 11 30.05 1017.7 0.00 0 0.006
21 05:00 35.4 28.9 77 NNE 9 G 13 30.03 1016.8 0.00 0 0.005
21 04:00 35.1 28.6 77 NNE 8 G 13 30.01 1016.3 0.00 0 0.004
21 03:00 35.8 28.7 75 NNE 8 G 12 29.99 1015.7 0.00 0 0.003
21 02:00 36.8 29.0 73 NNE 8 G 11 29.96 1014.7 0.00 0 0.002
21 01:00 36.3 29.1 41.1 36.3 75 NNE 12 G 17 29.94 1014.0 0.00 0 0.000
21 00:00 36.7 28.9 73 NE 13 G 19 29.95 1014.2 0.14 0 0.093
20 23:00 37.5 29.0 71 NE 14 G 19 29.94 1014.1 0.14 0 0.091
20 22:00 39.2 28.8 66 NE 13 G 20 29.94 1014.0 0.14 0 0.089
20 21:00 39.2 28.8 66 ENE 15 G 21 29.93 1013.4 0.14 0 0.086
20 20:00 40.7 28.7 62 E 16 G 27 29.90 1012.5 0.14 0 0.083
20 19:00 40.8 28.4 44.4 40.7 61 SSE 14 G 22 29.86 1011.3 0.02 0.14 0 0.080
20 18:00 41.5 28.7 60 SSE 12 G 20 29.82 1009.8 0.14 0 0.077
20 17:00 42.4 28.7 58 SSE 14 G 20 29.79 1008.7 0.14 0 0.073

Data generated by WxSolution Version 1.9.0.6, Build 2017.01.14.